createdAt,value
2024-03-02T00:01:37.283Z,45.77
2024-03-02T00:04:07.627Z,45.80
2024-03-02T00:06:36.209Z,45.60
2024-03-02T00:09:04.766Z,46.03
2024-03-02T00:11:32.648Z,45.83
2024-03-02T00:14:02.034Z,45.90
2024-03-02T00:16:32.868Z,45.77
2024-03-02T00:19:04.276Z,45.70
2024-03-02T00:21:32.922Z,45.37
2024-03-02T00:24:02.006Z,45.50
2024-03-02T00:26:30.436Z,45.73
2024-03-02T00:28:58.911Z,45.67
2024-03-02T00:31:28.173Z,45.60
2024-03-02T00:33:56.078Z,45.60
2024-03-02T00:36:26.681Z,45.47
2024-03-02T00:38:56.416Z,45.60
2024-03-02T00:41:26.719Z,45.53
2024-03-02T00:44:00.746Z,45.63
2024-03-02T00:46:32.680Z,45.90
2024-03-02T00:49:02.542Z,45.57
2024-03-02T00:51:32.409Z,45.67
2024-03-02T00:54:01.940Z,45.63
2024-03-02T00:56:29.844Z,45.83
2024-03-02T00:58:57.799Z,45.27
2024-03-02T01:01:26.771Z,45.60
2024-03-02T01:03:56.332Z,45.60
2024-03-02T01:06:25.242Z,45.30
2024-03-02T01:08:53.915Z,45.60
2024-03-02T01:11:22.870Z,45.53
2024-03-02T01:13:51.024Z,45.53
2024-03-02T01:16:18.914Z,45.43
2024-03-02T01:18:46.882Z,45.27
2024-03-02T01:21:16.710Z,45.27
2024-03-02T01:23:44.761Z,45.43
2024-03-02T01:26:12.690Z,45.40
2024-03-02T01:28:40.642Z,45.30
2024-03-02T01:31:08.566Z,45.50
2024-03-02T01:33:36.569Z,45.40
2024-03-02T01:36:04.906Z,45.63
2024-03-02T01:38:34.993Z,45.63
2024-03-02T01:41:03.438Z,45.80
2024-03-02T01:43:31.353Z,45.40
2024-03-02T01:45:59.758Z,45.30
2024-03-02T01:48:27.664Z,45.60
2024-03-02T01:50:56.442Z,45.70
2024-03-02T01:53:24.674Z,45.60
2024-03-02T01:55:53.901Z,45.50
2024-03-02T01:58:21.736Z,45.30
2024-03-02T02:00:51.580Z,45.37
2024-03-02T02:03:19.596Z,45.47
2024-03-02T02:05:48.975Z,45.47
2024-03-02T02:08:16.841Z,45.60
2024-03-02T02:10:44.780Z,45.47
2024-03-02T02:13:14.087Z,45.57
2024-03-02T02:15:42.215Z,45.50
2024-03-02T02:18:10.157Z,45.40
2024-03-02T02:20:38.030Z,45.20
2024-03-02T02:23:09.051Z,45.30
2024-03-02T02:25:37.003Z,45.30
2024-03-02T02:28:05.299Z,45.37
2024-03-02T02:30:34.677Z,45.23
2024-03-02T02:33:03.090Z,45.70
2024-03-02T02:35:31.250Z,45.43
2024-03-02T02:37:59.971Z,45.40
2024-03-02T02:40:30.490Z,45.50
2024-03-02T02:42:58.408Z,45.30
2024-03-02T02:45:26.356Z,45.40
2024-03-02T02:47:54.274Z,45.30
2024-03-02T02:50:22.328Z,45.50
2024-03-02T02:52:51.416Z,45.63
2024-03-02T02:55:19.273Z,45.30
2024-03-02T02:57:48.656Z,45.50
2024-03-02T03:00:19.953Z,45.57
2024-03-02T03:02:50.088Z,45.17
2024-03-02T03:05:18.673Z,45.30
2024-03-02T03:07:46.736Z,45.60
2024-03-02T03:10:15.735Z,45.40
2024-03-02T03:12:45.313Z,45.57
2024-03-02T03:15:15.214Z,45.37
2024-03-02T03:17:43.259Z,45.57
2024-03-02T03:20:11.666Z,45.50
2024-03-02T03:22:39.973Z,45.20
2024-03-02T03:25:09.276Z,45.60
2024-03-02T03:27:37.816Z,45.40
2024-03-02T03:30:07.071Z,45.50
2024-03-02T03:32:36.595Z,45.57
2024-03-02T03:35:05.126Z,45.20
2024-03-02T03:37:34.673Z,45.43
2024-03-02T03:40:08.356Z,45.50
2024-03-02T03:42:36.264Z,45.30
2024-03-02T03:45:04.268Z,45.40
2024-03-02T03:47:33.468Z,45.10
2024-03-02T03:50:04.197Z,45.50
2024-03-02T03:52:32.086Z,45.40
2024-03-02T03:55:00.072Z,45.63
2024-03-02T03:57:28.378Z,45.50
2024-03-02T03:59:56.212Z,45.27
2024-03-02T04:02:25.714Z,45.40
2024-03-02T04:04:53.812Z,45.40
2024-03-02T04:07:22.986Z,45.27
2024-03-02T04:09:50.922Z,45.33
2024-03-02T04:12:18.828Z,45.40
2024-03-02T04:14:46.678Z,45.30
2024-03-02T04:17:14.505Z,45.10
2024-03-02T04:19:42.316Z,45.00
2024-03-02T04:22:15.861Z,45.50
2024-03-02T04:24:50.723Z,45.23
2024-03-02T04:27:18.634Z,45.80
2024-03-02T04:29:46.456Z,45.40
2024-03-02T04:32:14.379Z,45.30
2024-03-02T04:34:42.336Z,45.53
2024-03-02T04:37:10.537Z,45.50
2024-03-02T04:39:38.452Z,45.70
2024-03-02T04:42:07.818Z,45.33
2024-03-02T04:44:35.743Z,45.30
2024-03-02T04:47:03.633Z,45.30
2024-03-02T04:49:32.129Z,45.27
2024-03-02T04:52:00.155Z,45.33
2024-03-02T04:54:28.179Z,45.30
2024-03-02T04:56:56.047Z,45.37
2024-03-02T04:59:25.190Z,45.50
2024-03-02T05:01:53.156Z,45.20
2024-03-02T05:04:21.016Z,45.30
2024-03-02T05:06:53.782Z,45.10
2024-03-02T05:09:22.011Z,45.60
2024-03-02T05:12:12.697Z,45.30
2024-03-02T05:14:41.072Z,45.40
2024-03-02T05:17:09.020Z,45.37
2024-03-02T05:19:36.843Z,45.30
2024-03-02T05:22:04.992Z,45.20
2024-03-02T05:24:32.831Z,45.30
2024-03-02T05:27:00.788Z,45.10
2024-03-02T05:29:28.793Z,45.73
2024-03-02T05:31:58.034Z,45.50
2024-03-02T05:34:26.061Z,45.37
2024-03-02T05:36:54.494Z,45.30
2024-03-02T05:39:22.437Z,45.50
2024-03-02T05:41:50.295Z,45.30
2024-03-02T05:44:19.340Z,45.30
2024-03-02T05:46:47.482Z,45.40
2024-03-02T05:49:16.704Z,45.40
2024-03-02T05:51:44.666Z,45.33
2024-03-02T05:54:12.566Z,45.40
2024-03-02T05:56:40.374Z,45.27
2024-03-02T05:59:14.249Z,45.27
2024-03-02T06:01:42.615Z,45.23
2024-03-02T06:04:11.997Z,45.40
2024-03-02T06:06:41.492Z,45.20
2024-03-02T06:09:10.145Z,45.20
2024-03-02T06:11:38.410Z,45.23
2024-03-02T06:14:07.116Z,45.33
2024-03-02T06:16:35.379Z,45.30
2024-03-02T06:19:03.841Z,45.10
2024-03-02T06:21:31.991Z,45.40
2024-03-02T06:24:02.245Z,45.13
2024-03-02T06:26:30.809Z,45.40
2024-03-02T06:28:58.650Z,45.30
2024-03-02T06:31:26.568Z,45.37
2024-03-02T06:33:54.443Z,45.10
2024-03-02T06:36:22.337Z,45.37
2024-03-02T06:38:50.222Z,45.20
2024-03-02T06:41:19.442Z,45.50
2024-03-02T06:43:47.258Z,45.30
2024-03-02T06:46:16.133Z,45.33
2024-03-02T06:48:44.578Z,45.30
2024-03-02T06:51:12.648Z,45.43
2024-03-02T06:53:40.470Z,45.07
2024-03-02T06:56:10.294Z,45.03
2024-03-02T06:58:39.535Z,45.20
2024-03-02T07:01:08.181Z,45.40
2024-03-02T07:03:36.069Z,45.27
2024-03-02T07:06:04.158Z,45.20
2024-03-02T07:08:32.024Z,45.30
2024-03-02T07:10:59.943Z,45.40
2024-03-02T07:13:27.912Z,45.13
2024-03-02T07:16:23.663Z,45.47
2024-03-02T07:18:53.057Z,45.27
2024-03-02T07:21:21.941Z,45.17
2024-03-02T07:23:49.846Z,45.50
2024-03-02T07:28:51.029Z,45.27
2024-03-02T07:31:20.292Z,45.30
2024-03-02T07:33:48.483Z,45.60
2024-03-02T07:36:16.963Z,45.43
2024-03-02T07:38:45.682Z,46.00
2024-03-02T07:41:14.046Z,45.37
2024-03-02T07:43:41.964Z,45.60
2024-03-02T07:46:09.924Z,45.67
2024-03-02T07:48:39.858Z,45.60
2024-03-02T07:51:07.795Z,45.80
2024-03-02T07:53:35.643Z,45.50
2024-03-02T07:56:04.578Z,45.60
2024-03-02T07:58:32.667Z,45.87
2024-03-02T08:01:02.455Z,45.63
2024-03-02T08:03:30.656Z,45.90
2024-03-02T08:05:59.970Z,45.87
2024-03-02T08:08:27.859Z,46.10
2024-03-02T08:10:56.178Z,46.00
2024-03-02T08:13:24.594Z,46.10
2024-03-02T08:15:52.525Z,46.13
2024-03-02T08:18:20.608Z,46.27
2024-03-02T08:20:48.588Z,46.40
2024-03-02T08:23:17.836Z,46.43
2024-03-02T08:25:45.975Z,46.60
2024-03-02T08:28:13.848Z,47.07
2024-03-02T08:30:41.837Z,46.90
2024-03-02T08:33:09.878Z,46.97
2024-03-02T08:35:39.503Z,47.03
2024-03-02T08:38:07.458Z,47.17
2024-03-02T08:40:36.869Z,47.13
2024-03-02T08:43:04.991Z,47.07
2024-03-02T08:45:33.032Z,47.00
2024-03-02T08:48:01.057Z,47.27
2024-03-02T08:50:29.015Z,47.23
2024-03-02T08:52:56.826Z,47.37
2024-03-02T08:55:24.662Z,47.33
2024-03-02T08:57:53.959Z,47.60
2024-03-02T09:00:22.534Z,47.27
2024-03-02T09:02:50.499Z,47.50
2024-03-02T09:05:18.372Z,47.70
2024-03-02T09:07:46.209Z,47.57
2024-03-02T09:10:14.330Z,47.47
2024-03-02T09:12:42.297Z,47.80
2024-03-02T09:15:12.173Z,47.40
2024-03-02T09:17:40.072Z,47.93
2024-03-02T09:20:08.869Z,47.70
2024-03-02T09:22:36.733Z,47.43
2024-03-02T09:25:04.992Z,47.73
2024-03-02T09:27:32.899Z,47.87
2024-03-02T09:30:00.741Z,48.00
2024-03-02T09:32:29.930Z,47.87
2024-03-02T09:34:59.322Z,47.80
2024-03-02T09:37:27.879Z,48.07
2024-03-02T09:39:56.020Z,48.63
2024-03-02T09:42:24.926Z,48.27
2024-03-02T09:44:53.490Z,48.03
2024-03-02T09:47:21.404Z,47.90
2024-03-02T09:49:50.958Z,48.07
2024-03-02T09:52:18.839Z,47.70
2024-03-02T09:54:49.183Z,48.33
2024-03-02T09:57:17.078Z,48.57
2024-03-02T09:59:46.420Z,48.23
2024-03-02T10:02:14.291Z,47.97
2024-03-02T10:04:42.210Z,48.30
2024-03-02T10:07:16.117Z,48.13
2024-03-02T10:09:45.671Z,48.17
2024-03-02T10:12:15.005Z,48.43
2024-03-02T10:14:43.511Z,48.40
2024-03-02T10:17:12.921Z,48.17
2024-03-02T10:19:41.561Z,48.37
2024-03-02T10:22:10.631Z,48.00
2024-03-02T10:24:41.292Z,48.07
2024-03-02T10:27:11.092Z,48.30
2024-03-02T10:29:40.933Z,48.37
2024-03-02T10:32:12.000Z,48.10
2024-03-02T10:34:41.966Z,48.37
2024-03-02T10:37:10.142Z,48.40
2024-03-02T10:39:40.881Z,48.43
2024-03-02T10:42:09.745Z,48.73
2024-03-02T10:44:37.657Z,48.33
2024-03-02T10:47:07.263Z,47.93
2024-03-02T10:49:35.598Z,48.23
2024-03-02T10:52:03.787Z,48.30
2024-03-02T10:54:37.246Z,48.17
2024-03-02T10:57:10.503Z,48.27
2024-03-02T10:59:40.782Z,48.23
2024-03-02T11:02:10.997Z,48.47
2024-03-02T11:04:40.196Z,48.03
2024-03-02T11:07:10.667Z,48.30
2024-03-02T11:09:43.049Z,48.17
2024-03-02T11:12:19.314Z,48.30
2024-03-02T11:14:47.250Z,48.37
2024-03-02T11:17:17.718Z,48.40
2024-03-02T11:19:46.955Z,48.40
2024-03-02T11:22:15.230Z,48.57
2024-03-02T11:24:50.307Z,48.43
2024-03-02T11:27:57.946Z,48.50
2024-03-02T11:30:56.193Z,48.50
2024-03-02T11:33:31.767Z,48.60
2024-03-02T11:36:00.860Z,48.57
2024-03-02T11:38:36.472Z,48.53
2024-03-02T11:41:08.239Z,48.70
2024-03-02T11:43:40.323Z,48.23
2024-03-02T11:46:09.331Z,48.57
2024-03-02T11:48:38.742Z,48.00
2024-03-02T11:51:06.707Z,48.57
2024-03-02T11:53:37.359Z,48.27
2024-03-02T11:56:07.934Z,48.60
2024-03-02T11:58:39.086Z,48.77
2024-03-02T12:01:08.119Z,48.43
2024-03-02T12:03:37.208Z,48.67
2024-03-02T12:06:05.720Z,48.40
2024-03-02T12:08:33.865Z,48.53
2024-03-02T12:11:04.972Z,48.00
2024-03-02T12:13:34.384Z,48.33
2024-03-02T12:16:03.782Z,48.27
2024-03-02T12:18:31.695Z,48.50
2024-03-02T12:21:00.008Z,48.47
2024-03-02T12:23:28.267Z,48.23
2024-03-02T12:25:56.607Z,47.97
2024-03-02T12:28:24.544Z,48.23
2024-03-02T12:30:52.758Z,48.07
2024-03-02T12:33:22.545Z,48.67
2024-03-02T12:35:51.513Z,48.13
2024-03-02T12:38:19.444Z,48.53
2024-03-02T12:40:49.613Z,48.37
2024-03-02T12:43:17.466Z,48.60
2024-03-02T12:45:45.551Z,48.47
2024-03-02T12:48:15.455Z,48.30
2024-03-02T12:50:45.274Z,48.27
2024-03-02T12:53:17.299Z,48.63
2024-03-02T12:55:45.634Z,48.70
2024-03-02T12:58:19.415Z,48.70
2024-03-02T13:00:47.484Z,48.73
2024-03-02T13:03:16.609Z,48.60
2024-03-02T13:05:50.783Z,48.47
2024-03-02T13:08:18.879Z,48.77
2024-03-02T13:10:47.338Z,48.57
2024-03-02T13:13:15.825Z,48.60
2024-03-02T13:15:44.296Z,47.90
2024-03-02T13:18:13.000Z,48.50
2024-03-02T13:20:41.042Z,48.43
2024-03-02T13:23:11.200Z,48.73
2024-03-02T13:25:39.114Z,48.70
2024-03-02T13:28:08.208Z,48.40
2024-03-02T13:30:36.217Z,48.73
2024-03-02T13:33:04.222Z,48.37
2024-03-02T13:35:32.107Z,48.60
2024-03-02T13:37:59.965Z,47.93
2024-03-02T13:40:30.162Z,48.43
2024-03-02T13:42:58.120Z,48.53
2024-03-02T13:45:26.197Z,48.97
2024-03-02T13:47:54.421Z,48.73
2024-03-02T13:50:22.337Z,48.20
2024-03-02T13:52:50.294Z,48.47
2024-03-02T13:55:18.289Z,48.43
2024-03-02T13:57:48.807Z,48.17
2024-03-02T14:00:18.396Z,48.80
2024-03-02T14:02:47.397Z,48.30
2024-03-02T14:05:15.541Z,48.13
2024-03-02T14:07:43.753Z,48.07
2024-03-02T14:10:12.126Z,48.23
2024-03-02T14:12:40.326Z,48.23
2024-03-02T14:15:10.321Z,48.17
2024-03-02T14:17:38.211Z,48.40
2024-03-02T14:20:07.981Z,48.70
2024-03-02T14:22:38.376Z,48.37
2024-03-02T14:25:07.281Z,48.30
2024-03-02T14:27:50.854Z,48.17
2024-03-02T14:30:25.951Z,48.20
2024-03-02T14:32:53.999Z,48.10
2024-03-02T14:35:23.667Z,48.17
2024-03-02T14:37:51.738Z,48.23
2024-03-02T14:40:19.600Z,48.77
2024-03-02T14:42:49.301Z,48.10
2024-03-02T14:45:17.328Z,48.50
2024-03-02T14:47:46.722Z,47.80
2024-03-02T14:50:16.523Z,48.33
2024-03-02T14:52:46.265Z,48.17
2024-03-02T14:55:14.398Z,48.27
2024-03-02T14:57:42.358Z,48.27
2024-03-02T15:00:12.575Z,48.27
2024-03-02T15:02:40.625Z,48.10
2024-03-02T15:05:10.384Z,48.13
2024-03-02T15:07:39.022Z,48.17
2024-03-02T15:10:08.314Z,48.07
2024-03-02T15:12:36.320Z,47.90
2024-03-02T15:15:04.678Z,48.03
2024-03-02T15:17:32.819Z,48.13
2024-03-02T15:20:00.709Z,47.87
2024-03-02T15:22:29.910Z,48.20
2024-03-02T15:24:56.838Z,47.90
2024-03-02T15:27:24.862Z,47.83
2024-03-02T15:29:53.291Z,48.10
2024-03-02T15:32:21.222Z,48.20
2024-03-02T15:34:49.187Z,48.50
2024-03-02T15:37:17.486Z,48.20
2024-03-02T15:39:46.765Z,48.33
2024-03-02T15:42:14.802Z,48.27
2024-03-02T15:44:45.162Z,47.97
2024-03-02T15:47:13.279Z,48.40
2024-03-02T15:49:41.226Z,48.13
2024-03-02T15:52:09.315Z,48.50
2024-03-02T15:54:37.238Z,48.07
2024-03-02T15:57:06.813Z,48.10
2024-03-02T15:59:33.707Z,48.30
2024-03-02T16:02:01.898Z,48.07
2024-03-02T16:04:30.171Z,48.17
2024-03-02T16:06:58.085Z,48.60
2024-03-02T16:09:25.998Z,48.27
2024-03-02T16:11:54.110Z,48.13
2024-03-02T16:14:23.380Z,48.40
2024-03-02T16:16:51.239Z,48.27
2024-03-02T16:19:29.110Z,48.20
2024-03-02T16:22:00.759Z,47.93
2024-03-02T16:24:28.984Z,48.40
2024-03-02T16:26:57.051Z,48.30
2024-03-02T16:29:26.239Z,47.93
2024-03-02T16:31:54.053Z,48.23
2024-03-02T16:34:22.058Z,48.10
2024-03-02T16:36:50.066Z,48.27
2024-03-02T16:39:18.053Z,48.23
2024-03-02T16:41:47.929Z,47.93
2024-03-02T16:44:16.080Z,48.10
2024-03-02T16:46:46.253Z,47.80
2024-03-02T16:49:14.395Z,48.30
2024-03-02T16:51:42.682Z,48.10
2024-03-02T16:54:10.963Z,48.30
2024-03-02T16:56:41.893Z,47.73
2024-03-02T16:59:10.219Z,48.27
2024-03-02T17:01:38.240Z,48.17
2024-03-02T17:04:08.357Z,47.80
2024-03-02T17:06:36.650Z,48.10
2024-03-02T17:09:04.725Z,48.03
2024-03-02T17:11:32.857Z,47.70
2024-03-02T17:14:00.889Z,47.77
2024-03-02T17:16:28.832Z,47.87
2024-03-02T17:18:56.956Z,47.93
2024-03-02T17:21:26.301Z,47.93
2024-03-02T17:23:54.246Z,47.53
2024-03-02T17:26:22.119Z,47.93
2024-03-02T17:28:50.536Z,47.30
2024-03-02T17:31:18.513Z,47.73
2024-03-02T17:33:46.558Z,47.90
2024-03-02T17:36:15.508Z,47.77
2024-03-02T17:38:45.039Z,47.57
2024-03-02T17:41:12.984Z,47.67
2024-03-02T17:43:41.275Z,47.90
2024-03-02T17:46:09.208Z,47.70
2024-03-02T17:48:37.293Z,47.67
2024-03-02T17:51:09.034Z,48.07
2024-03-02T17:53:37.158Z,47.80
2024-03-02T17:56:07.736Z,48.17
2024-03-02T17:58:35.578Z,47.87
2024-03-02T18:01:04.473Z,47.73
2024-03-02T18:03:32.355Z,47.90
2024-03-02T18:06:00.260Z,48.00
2024-03-02T18:08:28.448Z,47.97
2024-03-02T18:10:59.372Z,47.63
2024-03-02T18:13:30.244Z,47.40
2024-03-02T18:15:58.271Z,47.60
2024-03-02T18:18:26.343Z,47.63
2024-03-02T18:20:54.478Z,47.53
2024-03-02T18:23:22.292Z,47.33
2024-03-02T18:25:50.113Z,47.73
2024-03-02T18:28:18.132Z,47.50
2024-03-02T18:30:47.742Z,47.67
2024-03-02T18:33:16.657Z,47.70
2024-03-02T18:35:44.528Z,47.77
2024-03-02T18:38:12.503Z,47.53
2024-03-02T18:40:40.397Z,47.53
2024-03-02T18:43:08.321Z,47.50
2024-03-02T18:45:36.452Z,47.57
2024-03-02T18:48:07.003Z,47.67
2024-03-02T18:50:34.946Z,47.77
2024-03-02T18:53:02.808Z,47.80
2024-03-02T18:55:31.250Z,47.57
2024-03-02T18:57:59.169Z,47.57
2024-03-02T19:00:27.191Z,47.57
2024-03-02T19:02:55.112Z,47.83
2024-03-02T19:05:24.380Z,47.83
2024-03-02T19:07:52.256Z,48.10
2024-03-02T19:10:20.095Z,47.50
2024-03-02T19:12:48.766Z,47.57
2024-03-02T19:15:17.774Z,47.87
2024-03-02T19:17:45.720Z,47.73
2024-03-02T19:20:14.030Z,47.93
2024-03-02T19:22:43.302Z,48.07
2024-03-02T19:25:12.573Z,47.80
2024-03-02T19:27:40.698Z,47.83
2024-03-02T19:30:09.887Z,48.17
2024-03-02T19:32:37.804Z,47.80
2024-03-02T19:35:06.837Z,48.20
2024-03-02T19:37:37.142Z,47.83
2024-03-02T19:40:08.905Z,47.53
2024-03-02T19:42:36.943Z,47.60
2024-03-02T19:45:07.162Z,48.00
2024-03-02T19:47:36.038Z,47.47
2024-03-02T19:50:05.276Z,47.73
2024-03-02T19:52:33.277Z,47.63
2024-03-02T19:55:02.561Z,47.80
2024-03-02T19:57:32.273Z,47.57
2024-03-02T20:00:00.299Z,47.53
2024-03-02T20:02:28.582Z,47.70
2024-03-02T20:04:56.433Z,47.60
2024-03-02T20:07:24.311Z,47.87
2024-03-02T20:09:54.183Z,47.67
2024-03-02T20:12:22.271Z,47.73
2024-03-02T20:14:51.609Z,47.50
2024-03-02T20:17:19.569Z,47.63
2024-03-02T20:19:47.548Z,48.00
2024-03-02T20:22:16.121Z,47.87
2024-03-02T20:24:44.093Z,48.10
2024-03-02T20:27:12.461Z,47.50
2024-03-02T20:29:40.490Z,47.67
2024-03-02T20:32:09.865Z,47.93
2024-03-02T20:34:37.815Z,47.53
2024-03-02T20:37:06.093Z,47.60
2024-03-02T20:39:34.133Z,47.50
2024-03-02T20:42:02.039Z,47.77
2024-03-02T20:44:31.215Z,47.77
2024-03-02T20:46:59.319Z,48.13
2024-03-02T20:49:31.053Z,47.90
2024-03-02T20:52:00.783Z,47.93
2024-03-02T20:54:29.230Z,48.03
2024-03-02T20:56:59.032Z,47.60
2024-03-02T20:59:28.228Z,47.57
2024-03-02T21:01:56.073Z,47.83
2024-03-02T21:04:24.122Z,47.90
2024-03-02T21:06:53.753Z,47.67
2024-03-02T21:09:21.844Z,47.83
2024-03-02T21:11:49.816Z,47.73
2024-03-02T21:14:17.731Z,48.00
2024-03-02T21:16:45.576Z,47.90
2024-03-02T21:19:13.853Z,47.50
2024-03-02T21:21:43.870Z,47.90
2024-03-02T21:24:13.103Z,47.77
2024-03-02T21:26:42.105Z,47.97
2024-03-02T21:29:10.310Z,47.73
2024-03-02T21:31:38.298Z,48.00
2024-03-02T21:34:06.796Z,48.20
2024-03-02T21:36:35.320Z,47.87
2024-03-02T21:39:05.610Z,47.93
2024-03-02T21:41:35.171Z,47.67
2024-03-02T21:44:03.053Z,47.60
2024-03-02T21:46:30.899Z,47.83
2024-03-02T21:48:58.858Z,47.90
2024-03-02T21:51:27.596Z,47.77
2024-03-02T21:53:56.846Z,47.70
2024-03-02T21:56:24.718Z,47.50
2024-03-02T21:58:53.940Z,47.77
2024-03-02T22:01:21.835Z,47.77
2024-03-02T22:03:49.735Z,48.00
2024-03-02T22:06:17.847Z,47.47
2024-03-02T22:08:45.999Z,47.33
2024-03-02T22:11:13.922Z,47.97
2024-03-02T22:13:41.780Z,47.77
2024-03-02T22:16:10.971Z,47.73
2024-03-02T22:18:38.906Z,47.67
2024-03-02T22:21:06.916Z,47.63
2024-03-02T22:23:34.823Z,47.83
2024-03-02T22:26:02.657Z,48.20
2024-03-02T22:28:30.557Z,48.00
2024-03-02T22:30:58.456Z,47.60
2024-03-02T22:33:27.758Z,47.70
2024-03-02T22:35:55.579Z,47.77
2024-03-02T22:38:23.459Z,47.40
2024-03-02T22:40:51.286Z,47.43
2024-03-02T22:43:19.184Z,47.60
2024-03-02T22:45:47.111Z,47.77
2024-03-02T22:48:15.043Z,47.90
2024-03-02T22:50:44.462Z,47.47
2024-03-02T22:53:12.291Z,47.30
2024-03-02T22:55:40.221Z,47.73
2024-03-02T22:58:08.764Z,47.40
2024-03-02T23:00:38.551Z,47.67
2024-03-02T23:03:06.770Z,47.50
2024-03-02T23:05:34.653Z,47.73
2024-03-02T23:08:04.079Z,47.40
2024-03-02T23:10:32.263Z,47.83
2024-03-02T23:13:00.137Z,47.43
2024-03-02T23:15:30.577Z,47.50
2024-03-02T23:17:58.510Z,48.03
2024-03-02T23:20:26.631Z,47.57
2024-03-02T23:22:54.500Z,47.17
2024-03-02T23:25:23.742Z,47.83
2024-03-02T23:27:51.706Z,47.63
2024-03-02T23:30:19.670Z,47.57
2024-03-02T23:32:47.575Z,47.50
2024-03-02T23:35:15.559Z,47.80
2024-03-02T23:37:43.737Z,47.37
2024-03-02T23:40:51.983Z,47.63
2024-03-02T23:43:21.174Z,47.37
2024-03-02T23:45:49.235Z,47.53
2024-03-02T23:48:17.109Z,47.67
2024-03-02T23:50:44.938Z,46.97
2024-03-02T23:53:12.798Z,47.40
2024-03-02T23:55:47.532Z,47.10
2024-03-02T23:58:21.869Z,47.37
